sensor_id;sensor_type;location;lat;lon;timestamp;pressure;altitude;pressure_sealevel;temperature;humidity
80509;BME280;69838;52.602;13.434;2024-01-11T00:00:14;102574.00;;;-9.66;100.00
80509;BME280;69838;52.602;13.434;2024-01-11T00:01:01;102540.50;;;-9.87;100.00
80509;BME280;69838;52.602;13.434;2024-01-11T00:01:47;102583.84;;;-9.62;100.00
80509;BME280;69838;52.602;13.434;2024-01-11T00:02:32;102582.63;;;-9.54;100.00
80509;BME280;69838;52.602;13.434;2024-01-11T00:03:19;102580.56;;;-9.45;100.00
80509;BME280;69838;52.602;13.434;2024-01-11T00:04:04;102580.78;;;-9.42;100.00
80509;BME280;69838;52.602;13.434;2024-01-11T00:04:50;102586.00;;;-9.42;100.00
80509;BME280;69838;52.602;13.434;2024-01-11T00:05:36;102576.97;;;-9.47;100.00
80509;BME280;69838;52.602;13.434;2024-01-11T00:06:22;102570.09;;;-9.45;100.00
80509;BME280;69838;52.602;13.434;2024-01-11T00:07:07;102565.06;;;-9.42;100.00
80509;BME280;69838;52.602;13.434;2024-01-11T00:07:54;102570.47;;;-9.38;100.00
80509;BME280;69838;52.602;13.434;2024-01-11T00:08:39;102573.59;;;-9.31;100.00
80509;BME280;69838;52.602;13.434;2024-01-11T00:09:24;102567.69;;;-9.42;100.00
80509;BME280;69838;52.602;13.434;2024-01-11T00:10:11;102564.88;;;-9.45;100.00
80509;BME280;69838;52.602;13.434;2024-01-11T00:10:57;102561.47;;;-9.44;100.00
80509;BME280;69838;52.602;13.434;2024-01-11T00:11:42;102565.06;;;-9.42;100.00
80509;BME280;69838;52.602;13.434;2024-01-11T00:12:29;102556.03;;;-9.47;100.00
80509;BME280;69838;52.602;13.434;2024-01-11T00:13:14;102550.09;;;-9.44;100.00
80509;BME280;69838;52.602;13.434;2024-01-11T00:14:02;102551.00;;;-9.44;100.00
80509;BME280;69838;52.602;13.434;2024-01-11T00:14:48;102542.97;;;-9.47;100.00
80509;BME280;69838;52.602;13.434;2024-01-11T00:15:34;102547.75;;;-9.39;100.00
80509;BME280;69838;52.602;13.434;2024-01-11T00:16:19;102541.09;;;-9.34;100.00
80509;BME280;69838;52.602;13.434;2024-01-11T00:17:06;102540.72;;;-9.41;100.00
80509;BME280;69838;52.602;13.434;2024-01-11T00:17:51;102529.34;;;-9.41;100.00
80509;BME280;69838;52.602;13.434;2024-01-11T00:18:36;102530.25;;;-9.41;100.00
80509;BME280;69838;52.602;13.434;2024-01-11T00:19:23;102526.84;;;-9.39;100.00
80509;BME280;69838;52.602;13.434;2024-01-11T00:20:09;102535.16;;;-9.32;100.00
80509;BME280;69838;52.602;13.434;2024-01-11T00:20:55;102540.13;;;-9.36;100.00
80509;BME280;69838;52.602;13.434;2024-01-11T00:21:42;102540.81;;;-9.39;100.00
80509;BME280;69838;52.602;13.434;2024-01-11T00:22:27;102542.72;;;-9.36;100.00
80509;BME280;69838;52.602;13.434;2024-01-11T00:23:13;102547.22;;;-9.34;100.00
80509;BME280;69838;52.602;13.434;2024-01-11T00:23:59;102537.84;;;-9.30;100.00
80509;BME280;69838;52.602;13.434;2024-01-11T00:24:44;102545.06;;;-9.26;100.00
80509;BME280;69838;52.602;13.434;2024-01-11T00:25:30;102531.91;;;-9.28;100.00
80509;BME280;69838;52.602;13.434;2024-01-11T00:26:16;102544.91;;;-9.29;100.00
80509;BME280;69838;52.602;13.434;2024-01-11T00:27:02;102544.28;;;-9.25;100.00
80509;BME280;69838;52.602;13.434;2024-01-11T00:27:47;102541.84;;;-9.22;100.00
80509;BME280;69838;52.602;13.434;2024-01-11T00:28:34;102539.38;;;-9.34;100.00
80509;BME280;69838;52.602;13.434;2024-01-11T00:29:21;102534.44;;;-9.29;100.00
80509;BME280;69838;52.602;13.434;2024-01-11T00:30:07;102524.41;;;-9.36;100.00
80509;BME280;69838;52.602;13.434;2024-01-11T00:30:54;102518.56;;;-9.32;100.00
80509;BME280;69838;52.602;13.434;2024-01-11T00:31:39;102515.50;;;-9.25;100.00
80509;BME280;69838;52.602;13.434;2024-01-11T00:32:26;102508.88;;;-9.33;100.00
80509;BME280;69838;52.602;13.434;2024-01-11T00:33:11;102501.97;;;-9.33;100.00
80509;BME280;69838;52.602;13.434;2024-01-11T00:33:56;102507.00;;;-9.21;100.00
80509;BME280;69838;52.602;13.434;2024-01-11T00:34:43;102499.34;;;-9.18;100.00
80509;BME280;69838;52.602;13.434;2024-01-11T00:35:28;102505.94;;;-9.25;100.00
80509;BME280;69838;52.602;13.434;2024-01-11T00:36:17;102511.34;;;-9.22;100.00
80509;BME280;69838;52.602;13.434;2024-01-11T00:37:04;102508.84;;;-9.20;100.00
80509;BME280;69838;52.602;13.434;2024-01-11T00:37:49;102508.09;;;-9.17;100.00
80509;BME280;69838;52.602;13.434;2024-01-11T00:38:35;102505.13;;;-9.09;100.00
80509;BME280;69838;52.602;13.434;2024-01-11T00:39:22;102503.94;;;-9.14;100.00
80509;BME280;69838;52.602;13.434;2024-01-11T00:40:08;102505.84;;;-9.26;100.00
80509;BME280;69838;52.602;13.434;2024-01-11T00:40:53;102500.34;;;-9.31;100.00
80509;BME280;69838;52.602;13.434;2024-01-11T00:41:40;102494.56;;;-9.25;100.00
80509;BME280;69838;52.602;13.434;2024-01-11T00:42:25;102496.56;;;-9.21;100.00
80509;BME280;69838;52.602;13.434;2024-01-11T00:43:11;102499.34;;;-9.18;100.00
80509;BME280;69838;52.602;13.434;2024-01-11T00:43:57;102499.34;;;-9.18;100.00
80509;BME280;69838;52.602;13.434;2024-01-11T00:44:44;102507.00;;;-9.21;100.00
80509;BME280;69838;52.602;13.434;2024-01-11T00:45:30;102497.72;;;-9.16;100.00
80509;BME280;69838;52.602;13.434;2024-01-11T00:46:16;102500.63;;;-9.11;100.00
80509;BME280;69838;52.602;13.434;2024-01-11T00:47:02;102495.31;;;-9.13;100.00
80509;BME280;69838;52.602;13.434;2024-01-11T00:47:47;102496.56;;;-9.06;100.00
80509;BME280;69838;52.602;13.434;2024-01-11T00:48:34;102475.25;;;-9.12;100.00
80509;BME280;69838;52.602;13.434;2024-01-11T00:49:19;102495.84;;;-9.04;100.00
80509;BME280;69838;52.602;13.434;2024-01-11T00:50:06;102498.56;;;-9.02;100.00
80509;BME280;69838;52.602;13.434;2024-01-11T00:50:52;102507.00;;;-9.06;100.00
80509;BME280;69838;52.602;13.434;2024-01-11T00:51:38;102507.13;;;-9.05;100.00
80509;BME280;69838;52.602;13.434;2024-01-11T00:52:23;102498.38;;;-9.05;100.00
80509;BME280;69838;52.602;13.434;2024-01-11T00:53:10;102496.66;;;-9.05;100.00
80509;BME280;69838;52.602;13.434;2024-01-11T00:53:56;102491.16;;;-9.09;100.00
80509;BME280;69838;52.602;13.434;2024-01-11T00:54:41;102475.72;;;-9.05;100.00
80509;BME280;69838;52.602;13.434;2024-01-11T00:55:28;102463.06;;;-9.12;100.00
80509;BME280;69838;52.602;13.434;2024-01-11T00:56:16;102467.50;;;-9.11;100.00
80509;BME280;69838;52.602;13.434;2024-01-11T00:57:02;102435.56;;;-9.20;100.00
80509;BME280;69838;52.602;13.434;2024-01-11T00:57:48;102463.91;;;-9.13;100.00
80509;BME280;69838;52.602;13.434;2024-01-11T00:58:34;102450.97;;;-9.10;100.00
80509;BME280;69838;52.602;13.434;2024-01-11T00:59:19;102452.97;;;-9.06;100.00
80509;BME280;69838;52.602;13.434;2024-01-11T01:00:10;102433.50;;;-9.11;100.00
80509;BME280;69838;52.602;13.434;2024-01-11T01:00:55;102442.53;;;-9.06;100.00
80509;BME280;69838;52.602;13.434;2024-01-11T01:01:46;102455.16;;;-8.98;100.00
80509;BME280;69838;52.602;13.434;2024-01-11T01:02:33;102452.53;;;-8.98;100.00
80509;BME280;69838;52.602;13.434;2024-01-11T01:03:18;102456.78;;;-9.00;100.00
80509;BME280;69838;52.602;13.434;2024-01-11T01:04:05;102452.78;;;-8.94;100.00
80509;BME280;69838;52.602;13.434;2024-01-11T01:04:50;102438.81;;;-8.94;100.00
80509;BME280;69838;52.602;13.434;2024-01-11T01:05:36;102449.09;;;-8.97;100.00
80509;BME280;69838;52.602;13.434;2024-01-11T01:06:22;102460.81;;;-8.91;100.00
80509;BME280;69838;52.602;13.434;2024-01-11T01:07:07;102453.06;;;-8.89;100.00
80509;BME280;69838;52.602;13.434;2024-01-11T01:07:54;102453.31;;;-8.85;100.00
80509;BME280;69838;52.602;13.434;2024-01-11T01:08:39;102457.47;;;-8.73;100.00
80509;BME280;69838;52.602;13.434;2024-01-11T01:09:24;102456.19;;;-8.80;100.00
80509;BME280;69838;52.602;13.434;2024-01-11T01:10:11;102451.78;;;-8.81;100.00
80509;BME280;69838;52.602;13.434;2024-01-11T01:10:56;102454.75;;;-8.75;100.00
80509;BME280;69838;52.602;13.434;2024-01-11T01:11:42;102453.97;;;-8.74;100.00
80509;BME280;69838;52.602;13.434;2024-01-11T01:12:28;102453.03;;;-8.74;100.00
80509;BME280;69838;52.602;13.434;2024-01-11T01:13:14;102455.56;;;-8.76;100.00
80509;BME280;69838;52.602;13.434;2024-01-11T01:13:59;102457.56;;;-8.72;100.00
80509;BME280;69838;52.602;13.434;2024-01-11T01:14:46;102457.56;;;-8.72;100.00
80509;BME280;69838;52.602;13.434;2024-01-11T01:15:32;102459.44;;;-8.69;100.00
80509;BME280;69838;52.602;13.434;2024-01-11T01:16:18;102453.50;;;-8.67;100.00
80509;BME280;69838;52.602;13.434;2024-01-11T01:17:04;102457.91;;;-8.66;100.00
80509;BME280;69838;52.602;13.434;2024-01-11T01:17:50;102441.84;;;-8.72;100.00
80509;BME280;69838;52.602;13.434;2024-01-11T01:18:36;102442.09;;;-8.67;100.00
80509;BME280;69838;52.602;13.434;2024-01-11T01:19:22;102443.63;;;-8.56;100.00
80509;BME280;69838;52.602;13.434;2024-01-11T01:20:08;102453.34;;;-8.53;100.00
80509;BME280;69838;52.602;13.434;2024-01-11T01:20:55;102450.91;;;-8.50;100.00
80509;BME280;69838;52.602;13.434;2024-01-11T01:21:41;102447.94;;;-8.56;100.00
80509;BME280;69838;52.602;13.434;2024-01-11T01:22:26;102442.69;;;-8.56;100.00
80509;BME280;69838;52.602;13.434;2024-01-11T01:23:13;102447.38;;;-8.51;100.00
80509;BME280;69838;52.602;13.434;2024-01-11T01:23:58;102446.47;;;-8.51;100.00
80509;BME280;69838;52.602;13.434;2024-01-11T01:24:43;102458.59;;;-8.53;100.00
80509;BME280;69838;52.602;13.434;2024-01-11T01:25:30;102455.97;;;-8.53;100.00
80509;BME280;69838;52.602;13.434;2024-01-11T01:26:15;102465.00;;;-8.48;100.00
80509;BME280;69838;52.602;13.434;2024-01-11T01:27:01;102454.34;;;-8.51;100.00
80509;BME280;69838;52.602;13.434;2024-01-11T01:27:47;102450.81;;;-8.52;100.00
80509;BME280;69838;52.602;13.434;2024-01-11T01:28:33;102456.97;;;-8.51;100.00
80509;BME280;69838;52.602;13.434;2024-01-11T01:29:18;102466.63;;;-8.50;100.00
80509;BME280;69838;52.602;13.434;2024-01-11T01:30:06;102468.50;;;-8.48;100.00
80509;BME280;69838;52.602;13.434;2024-01-11T01:30:53;102469.16;;;-8.52;100.00
80509;BME280;69838;52.602;13.434;2024-01-11T01:31:39;102467.44;;;-8.51;100.00
80509;BME280;69838;52.602;13.434;2024-01-11T01:32:25;102475.06;;;-8.56;100.00
80509;BME280;69838;52.602;13.434;2024-01-11T01:33:10;102454.00;;;-8.57;100.00
80509;BME280;69838;52.602;13.434;2024-01-11T01:33:56;102456.97;;;-8.51;100.00
80509;BME280;69838;52.602;13.434;2024-01-11T01:34:42;102465.81;;;-8.49;100.00
80509;BME280;69838;52.602;13.434;2024-01-11T01:35:27;102469.25;;;-8.50;100.00
80509;BME280;69838;52.602;13.434;2024-01-11T01:36:14;102462.28;;;-8.50;100.00
80509;BME280;69838;52.602;13.434;2024-01-11T01:36:59;102461.56;;;-8.47;100.00
80509;BME280;69838;52.602;13.434;2024-01-11T01:37:45;102456.41;;;-8.46;100.00
80509;BME280;69838;52.602;13.434;2024-01-11T01:38:30;102461.72;;;-8.44;100.00
80509;BME280;69838;52.602;13.434;2024-01-11T01:39:16;102461.81;;;-8.42;100.00
80509;BME280;69838;52.602;13.434;2024-01-11T01:40:03;102475.16;;;-8.38;100.00
80509;BME280;69838;52.602;13.434;2024-01-11T01:40:48;102478.28;;;-8.45;100.00
80509;BME280;69838;52.602;13.434;2024-01-11T01:41:34;102480.72;;;-8.48;100.00
80509;BME280;69838;52.602;13.434;2024-01-11T01:42:20;102483.53;;;-8.45;100.00
80509;BME280;69838;52.602;13.434;2024-01-11T01:43:07;102479.88;;;-8.47;100.00
80509;BME280;69838;52.602;13.434;2024-01-11T01:43:53;102475.28;;;-8.51;100.00
80509;BME280;69838;52.602;13.434;2024-01-11T01:44:39;102475.28;;;-8.51;100.00
80509;BME280;69838;52.602;13.434;2024-01-11T01:45:26;102466.47;;;-8.53;100.00
80509;BME280;69838;52.602;13.434;2024-01-11T01:46:19;102476.28;;;-8.49;100.00
80509;BME280;69838;52.602;13.434;2024-01-11T01:47:07;102479.88;;;-8.47;100.00
80509;BME280;69838;52.602;13.434;2024-01-11T01:47:54;102485.97;;;-8.48;100.00
80509;BME280;69838;52.602;13.434;2024-01-11T01:48:41;102476.66;;;-8.43;100.00
80509;BME280;69838;52.602;13.434;2024-01-11T01:49:27;102475.88;;;-8.40;100.00
80509;BME280;69838;52.602;13.434;2024-01-11T01:50:13;102485.31;;;-8.44;100.00
80509;BME280;69838;52.602;13.434;2024-01-11T01:50:59;102488.56;;;-8.48;100.00
80509;BME280;69838;52.602;13.434;2024-01-11T01:51:44;102441.00;;;-8.71;100.00
80509;BME280;69838;52.602;13.434;2024-01-11T01:52:31;102479.00;;;-8.48;100.00
80509;BME280;69838;52.602;13.434;2024-01-11T01:53:19;102485.13;;;-8.47;100.00
80509;BME280;69838;52.602;13.434;2024-01-11T01:54:07;102492.38;;;-8.43;100.00
80509;BME280;69838;52.602;13.434;2024-01-11T01:54:53;102491.78;;;-8.37;100.00
80509;BME280;69838;52.602;13.434;2024-01-11T01:55:39;102497.00;;;-8.37;100.00
80509;BME280;69838;52.602;13.434;2024-01-11T01:56:25;102495.00;;;-8.27;100.00
80509;BME280;69838;52.602;13.434;2024-01-11T01:57:12;102498.78;;;-8.21;100.00
80509;BME280;69838;52.602;13.434;2024-01-11T01:57:59;102497.94;;;-8.20;100.00
80509;BME280;69838;52.602;13.434;2024-01-11T01:58:45;102496.97;;;-8.22;100.00
80509;BME280;69838;52.602;13.434;2024-01-11T01:59:32;102502.75;;;-8.28;100.00
80509;BME280;69838;52.602;13.434;2024-01-11T02:00:17;102511.69;;;-8.25;100.00
80509;BME280;69838;52.602;13.434;2024-01-11T02:01:03;102504.16;;;-8.18;100.00
80509;BME280;69838;52.602;13.434;2024-01-11T02:01:51;102510.56;;;-8.13;100.00
80509;BME280;69838;52.602;13.434;2024-01-11T02:02:38;102510.75;;;-8.10;100.00
80509;BME280;69838;52.602;13.434;2024-01-11T02:03:26;102505.41;;;-8.12;100.00
80509;BME280;69838;52.602;13.434;2024-01-11T02:04:13;102505.50;;;-8.10;100.00
80509;BME280;69838;52.602;13.434;2024-01-11T02:05:00;102505.09;;;-8.18;100.00
80509;BME280;69838;52.602;13.434;2024-01-11T02:05:47;102495.31;;;-8.20;100.00
80509;BME280;69838;52.602;13.434;2024-01-11T02:06:33;102494.69;;;-8.16;100.00
80509;BME280;69838;52.602;13.434;2024-01-11T02:07:19;102485.81;;;-8.18;100.00
80509;BME280;69838;52.602;13.434;2024-01-11T02:08:06;102494.53;;;-8.19;100.00
80509;BME280;69838;52.602;13.434;2024-01-11T02:08:54;102501.72;;;-8.15;100.00
80509;BME280;69838;52.602;13.434;2024-01-11T02:09:42;102502.56;;;-8.16;100.00
80509;BME280;69838;52.602;13.434;2024-01-11T02:10:30;102509.13;;;-8.08;100.00
80509;BME280;69838;52.602;13.434;2024-01-11T02:11:19;102499.47;;;-8.09;100.00
80509;BME280;69838;52.602;13.434;2024-01-11T02:12:05;102495.03;;;-8.10;100.00
80509;BME280;69838;52.602;13.434;2024-01-11T02:12:56;102499.94;;;-8.16;100.00
80509;BME280;69838;52.602;13.434;2024-01-11T02:13:41;102492.06;;;-8.16;100.00
80509;BME280;69838;52.602;13.434;2024-01-11T02:14:27;102485.28;;;-8.13;100.00
80509;BME280;69838;52.602;13.434;2024-01-11T02:15:14;102480.56;;;-8.18;100.00
80509;BME280;69838;52.602;13.434;2024-01-11T02:15:59;102486.75;;;-8.18;100.00
80509;BME280;69838;52.602;13.434;2024-01-11T02:16:45;102483.19;;;-8.18;100.00
80509;BME280;69838;52.602;13.434;2024-01-11T02:17:33;102489.69;;;-8.12;100.00
80509;BME280;69838;52.602;13.434;2024-01-11T02:18:18;102488.22;;;-8.07;100.00
80509;BME280;69838;52.602;13.434;2024-01-11T02:19:05;102495.78;;;-7.96;100.00
80509;BME280;69838;52.602;13.434;2024-01-11T02:19:53;102494.38;;;-8.06;100.00
80509;BME280;69838;52.602;13.434;2024-01-11T02:20:38;102488.97;;;-8.09;100.00
80509;BME280;69838;52.602;13.434;2024-01-11T02:21:24;102487.34;;;-8.07;100.00
80509;BME280;69838;52.602;13.434;2024-01-11T02:22:18;102482.09;;;-8.07;100.00
80509;BME280;69838;52.602;13.434;2024-01-11T02:23:12;102483.16;;;-8.03;100.00
80509;BME280;69838;52.602;13.434;2024-01-11T02:24:03;102487.44;;;-8.06;100.00
80509;BME280;69838;52.602;13.434;2024-01-11T02:24:50;102493.97;;;-7.97;100.00
80509;BME280;69838;52.602;13.434;2024-01-11T02:25:35;102505.53;;;-7.94;100.00
80509;BME280;69838;52.602;13.434;2024-01-11T02:26:21;102488.16;;;-7.92;100.00
80509;BME280;69838;52.602;13.434;2024-01-11T02:27:07;102490.31;;;-7.84;100.00
80509;BME280;69838;52.602;13.434;2024-01-11T02:27:55;102486.38;;;-7.93;100.00
80509;BME280;69838;52.602;13.434;2024-01-11T02:28:45;102473.75;;;-8.00;100.00
80509;BME280;69838;52.602;13.434;2024-01-11T02:29:31;102496.28;;;-7.87;100.00
80509;BME280;69838;52.602;13.434;2024-01-11T02:30:17;102492.44;;;-7.77;100.00
80509;BME280;69838;52.602;13.434;2024-01-11T02:31:04;102492.34;;;-7.79;100.00
80509;BME280;69838;52.602;13.434;2024-01-11T02:31:49;102492.63;;;-7.74;100.00
80509;BME280;69838;52.602;13.434;2024-01-11T02:32:35;102476.22;;;-7.87;100.00
80509;BME280;69838;52.602;13.434;2024-01-11T02:33:22;102494.47;;;-7.72;100.00
80509;BME280;69838;52.602;13.434;2024-01-11T02:34:07;102484.75;;;-7.74;100.00
80509;BME280;69838;52.602;13.434;2024-01-11T02:34:53;102477.44;;;-7.80;100.00
80509;BME280;69838;52.602;13.434;2024-01-11T02:35:39;102483.41;;;-7.82;100.00
80509;BME280;69838;52.602;13.434;2024-01-11T02:36:26;102485.41;;;-7.78;100.00
80509;BME280;69838;52.602;13.434;2024-01-11T02:37:12;102473.84;;;-7.82;100.00
80509;BME280;69838;52.602;13.434;2024-01-11T02:37:59;102478.69;;;-7.73;100.00
80509;BME280;69838;52.602;13.434;2024-01-11T02:38:45;102474.16;;;-7.76;100.00
80509;BME280;69838;52.602;13.434;2024-01-11T02:39:33;102480.47;;;-7.72;100.00
80509;BME280;69838;52.602;13.434;2024-01-11T02:40:19;102466.38;;;-7.74;100.00
80509;BME280;69838;52.602;13.434;2024-01-11T02:41:06;102482.88;;;-7.77;100.00
80509;BME280;69838;52.602;13.434;2024-01-11T02:41:53;102468.19;;;-7.73;100.00
80509;BME280;69838;52.602;13.434;2024-01-11T02:42:39;102465.50;;;-7.75;100.00
80509;BME280;69838;52.602;13.434;2024-01-11T02:43:25;102466.38;;;-7.74;100.00
80509;BME280;69838;52.602;13.434;2024-01-11T02:44:11;102464.75;;;-7.72;100.00
80509;BME280;69838;52.602;13.434;2024-01-11T02:44:57;102472.97;;;-7.66;100.00
80509;BME280;69838;52.602;13.434;2024-01-11T02:45:43;102422.38;;;-7.96;100.00
80509;BME280;69838;52.602;13.434;2024-01-11T02:46:29;102465.09;;;-7.66;100.00
80509;BME280;69838;52.602;13.434;2024-01-11T02:47:16;102466.97;;;-7.63;100.00
80509;BME280;69838;52.602;13.434;2024-01-11T02:48:02;102465.31;;;-7.61;100.00
80509;BME280;69838;52.602;13.434;2024-01-11T02:48:48;102461.63;;;-7.65;100.00
80509;BME280;69838;52.602;13.434;2024-01-11T02:49:34;102461.63;;;-7.65;100.00
80509;BME280;69838;52.602;13.434;2024-01-11T02:50:20;102458.78;;;-7.70;100.00
80509;BME280;69838;52.602;13.434;2024-01-11T02:51:06;102456.97;;;-7.71;100.00
80509;BME280;69838;52.602;13.434;2024-01-11T02:51:51;102465.22;;;-7.63;100.00
80509;BME280;69838;52.602;13.434;2024-01-11T02:52:37;102459.97;;;-7.63;100.00
80509;BME280;69838;52.602;13.434;2024-01-11T02:53:23;102451.13;;;-7.65;100.00
80509;BME280;69838;52.602;13.434;2024-01-11T02:54:09;102452.78;;;-7.67;100.00
80509;BME280;69838;52.602;13.434;2024-01-11T02:54:56;102447.53;;;-7.67;100.00
80509;BME280;69838;52.602;13.434;2024-01-11T02:55:42;102445.72;;;-7.68;100.00
80509;BME280;69838;52.602;13.434;2024-01-11T02:56:27;102452.94;;;-7.64;100.00
80509;BME280;69838;52.602;13.434;2024-01-11T02:57:13;102454.59;;;-7.66;100.00
80509;BME280;69838;52.602;13.434;2024-01-11T02:57:59;102467.03;;;-7.62;100.00
80509;BME280;69838;52.602;13.434;2024-01-11T02:58:45;102466.19;;;-7.61;100.00
80509;BME280;69838;52.602;13.434;2024-01-11T02:59:30;102475.09;;;-7.59;100.00
80509;BME280;69838;52.602;13.434;2024-01-11T03:00:16;102472.69;;;-7.54;100.00
80509;BME280;69838;52.602;13.434;2024-01-11T03:01:02;102479.84;;;-7.52;100.00
80509;BME280;69838;52.602;13.434;2024-01-11T03:01:48;102483.25;;;-7.53;100.00
80509;BME280;69838;52.602;13.434;2024-01-11T03:02:36;102476.06;;;-7.57;100.00
80509;BME280;69838;52.602;13.434;2024-01-11T03:03:22;102462.28;;;-7.53;100.00
80509;BME280;69838;52.602;13.434;2024-01-11T03:04:07;102473.84;;;-7.49;100.00
80509;BME280;69838;52.602;13.434;2024-01-11T03:04:54;102476.19;;;-7.54;100.00
80509;BME280;69838;52.602;13.434;2024-01-11T03:05:40;102466.38;;;-7.58;100.00
80509;BME280;69838;52.602;13.434;2024-01-11T03:06:25;102470.94;;;-7.54;100.00
80509;BME280;69838;52.602;13.434;2024-01-11T03:07:11;102460.31;;;-7.57;100.00
80509;BME280;69838;52.602;13.434;2024-01-11T03:07:57;102466.78;;;-7.50;100.00
80509;BME280;69838;52.602;13.434;2024-01-11T03:08:43;102460.88;;;-7.46;100.00
80509;BME280;69838;52.602;13.434;2024-01-11T03:09:28;102463.25;;;-7.51;100.00
80509;BME280;69838;52.602;13.434;2024-01-11T03:10:16;102464.72;;;-7.56;100.00
80509;BME280;69838;52.602;13.434;2024-01-11T03:11:02;102465.56;;;-7.57;100.00
80509;BME280;69838;52.602;13.434;2024-01-11T03:11:47;102471.13;;;-7.51;100.00
80509;BME280;69838;52.602;13.434;2024-01-11T03:12:33;102475.56;;;-7.50;100.00
80509;BME280;69838;52.602;13.434;2024-01-11T03:13:19;102458.50;;;-7.58;100.00
80509;BME280;69838;52.602;13.434;2024-01-11T03:14:05;102468.31;;;-7.54;100.00
80509;BME280;69838;52.602;13.434;2024-01-11T03:14:51;102476.19;;;-7.54;100.00
80509;BME280;69838;52.602;13.434;2024-01-11T03:15:36;102483.09;;;-7.56;100.00
80509;BME280;69838;52.602;13.434;2024-01-11T03:16:22;102488.50;;;-7.53;100.00
80509;BME280;69838;52.602;13.434;2024-01-11T03:17:08;102474.59;;;-7.52;100.00
80509;BME280;69838;52.602;13.434;2024-01-11T03:17:53;102478.19;;;-7.50;100.00
80509;BME280;69838;52.602;13.434;2024-01-11T03:18:40;102469.84;;;-7.59;100.00
80509;BME280;69838;52.602;13.434;2024-01-11T03:19:25;102465.72;;;-7.54;100.00
80509;BME280;69838;52.602;13.434;2024-01-11T03:20:13;102465.56;;;-7.57;100.00
80509;BME280;69838;52.602;13.434;2024-01-11T03:20:58;102463.84;;;-7.56;100.00
80509;BME280;69838;52.602;13.434;2024-01-11T03:21:45;102455.78;;;-7.59;100.00
80509;BME280;69838;52.602;13.434;2024-01-11T03:22:31;102459.66;;;-7.53;100.00
80509;BME280;69838;52.602;13.434;2024-01-11T03:23:17;102461.13;;;-7.58;100.00
80509;BME280;69838;52.602;13.434;2024-01-11T03:24:02;102481.31;;;-7.57;100.00
80509;BME280;69838;52.602;13.434;2024-01-11T03:24:49;102476.19;;;-7.54;100.00
80509;BME280;69838;52.602;13.434;2024-01-11T03:25:36;102470.94;;;-7.54;100.00
80509;BME280;69838;52.602;13.434;2024-01-11T03:26:23;102474.41;;;-7.55;100.00
80509;BME280;69838;52.602;13.434;2024-01-11T03:27:09;102469.16;;;-7.55;100.00
80509;BME280;69838;52.602;13.434;2024-01-11T03:27:55;102475.47;;;-7.51;100.00
80509;BME280;69838;52.602;13.434;2024-01-11T03:28:40;102481.78;;;-7.47;100.00
80509;BME280;69838;52.602;13.434;2024-01-11T03:29:26;102476.47;;;-7.49;100.00
80509;BME280;69838;52.602;13.434;2024-01-11T03:30:13;102474.09;;;-7.44;100.00
80509;BME280;69838;52.602;13.434;2024-01-11T03:30:59;102474.59;;;-7.52;100.00
80509;BME280;69838;52.602;13.434;2024-01-11T03:31:45;102471.88;;;-7.53;100.00
80509;BME280;69838;52.602;13.434;2024-01-11T03:32:30;102462.09;;;-7.56;100.00
80509;BME280;69838;52.602;13.434;2024-01-11T03:33:17;102471.13;;;-7.51;100.00
80509;BME280;69838;52.602;13.434;2024-01-11T03:34:02;102453.59;;;-7.52;100.00
80509;BME280;69838;52.602;13.434;2024-01-11T03:34:48;102455.97;;;-7.56;100.00
80509;BME280;69838;52.602;13.434;2024-01-11T03:35:34;102455.22;;;-7.54;100.00
80509;BME280;69838;52.602;13.434;2024-01-11T03:36:23;102448.34;;;-7.52;100.00
80509;BME280;69838;52.602;13.434;2024-01-11T03:37:09;102440.31;;;-7.55;100.00
80509;BME280;69838;52.602;13.434;2024-01-11T03:37:55;102447.59;;;-7.49;100.00
80509;BME280;69838;52.602;13.434;2024-01-11T03:38:41;102436.13;;;-7.51;100.00
80509;BME280;69838;52.602;13.434;2024-01-11T03:39:26;102431.09;;;-7.46;100.00
80509;BME280;69838;52.602;13.434;2024-01-11T03:40:13;102430.78;;;-7.53;100.00
80509;BME280;69838;52.602;13.434;2024-01-11T03:41:00;102431.09;;;-7.46;100.00
80509;BME280;69838;52.602;13.434;2024-01-11T03:41:46;102426.91;;;-7.43;100.00
80509;BME280;69838;52.602;13.434;2024-01-11T03:42:32;102419.00;;;-7.44;100.00
80509;BME280;69838;52.602;13.434;2024-01-11T03:43:18;102427.97;;;-7.39;100.00
80509;BME280;69838;52.602;13.434;2024-01-11T03:44:03;102413.16;;;-7.39;100.00
80509;BME280;69838;52.602;13.434;2024-01-11T03:44:49;102427.16;;;-7.38;100.00
80509;BME280;69838;52.602;13.434;2024-01-11T03:45:35;102429.94;;;-7.35;100.00
80509;BME280;69838;52.602;13.434;2024-01-11T03:46:20;102415.84;;;-7.37;100.00
80509;BME280;69838;52.602;13.434;2024-01-11T03:47:06;102407.31;;;-7.33;100.00
80509;BME280;69838;52.602;13.434;2024-01-11T03:47:52;102405.38;;;-7.37;100.00
80509;BME280;69838;52.602;13.434;2024-01-11T03:48:38;102411.41;;;-7.38;100.00
80509;BME280;69838;52.602;13.434;2024-01-11T03:49:23;102411.34;;;-7.40;100.00
80509;BME280;69838;52.602;13.434;2024-01-11T03:50:09;102417.63;;;-7.36;100.00
80509;BME280;69838;52.602;13.434;2024-01-11T03:50:55;102428.31;;;-7.33;100.00
80509;BME280;69838;52.602;13.434;2024-01-11T03:51:41;102430.16;;;-7.31;100.00
80509;BME280;69838;52.602;13.434;2024-01-11T03:52:28;102425.00;;;-7.29;100.00
80509;BME280;69838;52.602;13.434;2024-01-11T03:53:13;102422.38;;;-7.29;100.00
80509;BME280;69838;52.602;13.434;2024-01-11T03:53:59;102418.28;;;-7.24;100.00
80509;BME280;69838;52.602;13.434;2024-01-11T03:54:45;102412.34;;;-7.20;100.00
80509;BME280;69838;52.602;13.434;2024-01-11T03:55:30;102407.78;;;-7.24;100.00